Time;durP1;ratioP1;P1;durP2;ratioP2;P2;SDS_P1;SDS_P2;PMS_P1;PMS_P2;Temp;Humidity;BMP_temperature;BMP_pressure;BME280_temperature;BME280_humidity;BME280_pressure;Samples;Min_cycle;Max_cycle;Signal;HPM_P1;HPM_P2
2023/03/20 00:01:18;;;;;;;25.67;20.63;;;;;;;13.76;62.65;100517.63;5029903;28;20053;-59
2023/03/20 00:03:46;;;;;;;27.63;21.13;;;;;;;13.71;62.67;100515.00;5030313;28;20476;-60
2023/03/20 00:06:16;;;;;;;32.08;23.45;;;;;;;13.67;63.39;100520.47;5031651;28;20053;-59
2023/03/20 00:08:45;;;;;;;32.03;24.60;;;;;;;13.63;63.01;100518.63;5029754;28;20418;-59
2023/03/20 00:11:27;;;;;;;32.88;25.17;;;;;;;13.62;63.17;100523.41;5030727;28;20408;-60
2023/03/20 00:13:56;;;;;;;34.30;25.27;;;;;;;13.56;63.35;100525.56;5017016;28;20050;-60
2023/03/20 00:16:29;;;;;;;35.72;25.38;;;;;;;13.57;63.80;100523.63;5030423;28;20052;-60
2023/03/20 00:18:57;;;;;;;30.95;24.42;;;;;;;13.53;65.03;100533.81;5030499;28;20076;-60
2023/03/20 00:21:25;;;;;;;33.65;24.95;;;;;;;13.52;65.47;100541.41;5030107;28;20056;-60
2023/03/20 00:23:52;;;;;;;36.08;25.92;;;;;;;13.53;64.80;100542.22;5030442;28;20054;-59
2023/03/20 00:26:20;;;;;;;35.28;26.10;;;;;;;13.47;64.69;100532.34;5030455;28;20057;-60
2023/03/20 00:28:49;;;;;;;38.35;27.50;;;;;;;13.44;64.49;100541.41;5029805;28;20411;-60
2023/03/20 00:31:24;;;;;;;38.53;27.63;;;;;;;13.43;64.90;100548.16;5027898;28;20050;-59
2023/03/20 00:33:53;;;;;;;39.20;27.42;;;;;;;13.36;64.35;100543.09;5031035;28;20056;-60
2023/03/20 00:36:20;;;;;;;42.97;29.75;;;;;;;13.26;63.88;100543.38;5031067;28;20518;-60
2023/03/20 00:38:48;;;;;;;39.67;27.00;;;;;;;13.18;64.59;100550.63;5029819;28;20541;-59
2023/03/20 00:41:23;;;;;;;36.45;27.20;;;;;;;13.03;64.68;100548.34;5031125;28;20428;-60
2023/03/20 00:43:53;;;;;;;36.88;25.75;;;;;;;12.97;64.76;100551.28;5030995;28;20053;-59
2023/03/20 00:46:21;;;;;;;37.47;26.80;;;;;;;12.83;65.71;100549.78;5030413;28;20060;-59
2023/03/20 00:48:48;;;;;;;34.40;24.65;;;;;;;12.92;64.62;100567.41;5031088;28;20049;-60
2023/03/20 00:51:18;;;;;;;34.70;25.77;;;;;;;12.88;64.49;100552.44;5029811;28;20057;-59
2023/03/20 00:53:45;;;;;;;32.42;24.27;;;;;;;12.85;64.74;100559.53;5030503;28;20468;-59
2023/03/20 00:56:30;;;;;;;32.78;23.88;;;;;;;12.76;64.61;100555.88;5030722;28;20054;-60
2023/03/20 00:58:58;;;;;;;33.35;23.52;;;;;;;12.76;63.91;100556.69;5030213;28;20057;-60
2023/03/20 01:01:26;;;;;;;36.20;24.73;;;;;;;12.64;64.84;100552.91;5029953;28;20049;-60
2023/03/20 01:03:53;;;;;;;33.05;24.85;;;;;;;12.69;64.68;100549.97;5030455;28;20068;-60
2023/03/20 01:06:22;;;;;;;31.80;23.98;;;;;;;12.64;64.07;100555.69;5028624;28;20057;-59
2023/03/20 01:08:49;;;;;;;33.95;23.55;;;;;;;12.63;64.66;100548.47;5031753;28;20053;-59
2023/03/20 01:11:21;;;;;;;31.67;23.30;;;;;;;12.58;64.73;100564.25;5028026;28;20056;-60
2023/03/20 01:13:51;;;;;;;30.95;22.40;;;;;;;12.48;64.21;100560.94;5030725;28;20050;-59
2023/03/20 01:16:21;;;;;;;28.20;22.15;;;;;;;12.55;64.20;100559.28;5029834;28;20508;-59
2023/03/20 01:18:49;;;;;;;30.33;23.00;;;;;;;12.47;64.21;100557.31;5030377;28;20049;-60
2023/03/20 01:21:17;;;;;;;29.33;21.83;;;;;;;12.43;64.10;100545.16;5027551;28;20038;-59
2023/03/20 01:23:46;;;;;;;29.00;22.23;;;;;;;12.36;64.16;100551.19;5031042;28;20053;-59
2023/03/20 01:26:22;;;;;;;28.80;22.00;;;;;;;12.32;64.54;100546.59;5029929;28;20053;-59
2023/03/20 01:28:50;;;;;;;29.95;22.38;;;;;;;12.31;64.42;100547.75;5030415;28;20053;-59
2023/03/20 01:31:18;;;;;;;29.05;23.15;;;;;;;12.23;64.32;100551.34;5028456;28;20045;-59
2023/03/20 01:33:45;;;;;;;27.98;21.10;;;;;;;12.12;64.56;100557.22;5030023;28;20049;-59
2023/03/20 01:36:14;;;;;;;31.15;20.80;;;;;;;12.10;64.30;100561.47;5030442;28;20523;-60
2023/03/20 01:38:42;;;;;;;29.17;20.80;;;;;;;12.06;64.36;100566.06;5029609;28;20057;-61
2023/03/20 01:41:15;;;;;;;27.05;21.30;;;;;;;11.99;64.64;100566.53;5013478;28;20057;-59
2023/03/20 01:43:43;;;;;;;25.30;18.08;;;;;;;12.01;64.29;100561.44;5029150;28;20060;-59
2023/03/20 01:46:22;;;;;;;26.67;19.38;;;;;;;12.04;64.18;100558.00;5030140;28;20061;-59
2023/03/20 01:48:59;;;;;;;28.13;19.13;;;;;;;12.02;64.18;100568.66;5029156;28;20053;-58
2023/03/20 01:51:28;;;;;;;24.63;19.73;;;;;;;11.98;64.35;100570.44;5026526;28;20072;-59
2023/03/20 01:54:00;;;;;;;24.33;18.67;;;;;;;12.06;64.06;100578.03;5029938;28;20053;-59
2023/03/20 01:56:32;;;;;;;25.40;20.02;;;;;;;12.09;64.33;100582.97;5029710;28;20045;-59
2023/03/20 01:59:03;;;;;;;32.38;23.23;;;;;;;12.01;64.43;100580.16;5029927;28;20049;-60
2023/03/20 02:01:31;;;;;;;28.77;21.92;;;;;;;12.04;64.95;100580.34;5028912;28;20056;-60
2023/03/20 02:03:58;;;;;;;26.95;21.08;;;;;;;12.07;65.07;100581.66;5030152;28;20060;-59
2023/03/20 02:06:26;;;;;;;29.95;21.65;;;;;;;12.07;64.74;100582.47;5027599;28;20053;-59
2023/03/20 02:08:53;;;;;;;28.67;20.67;;;;;;;12.03;65.02;100581.47;5027966;28;20053;-60
2023/03/20 02:11:23;;;;;;;27.67;20.40;;;;;;;12.05;64.64;100581.97;5028784;28;20053;-60
2023/03/20 02:13:55;;;;;;;28.27;20.25;;;;;;;11.96;64.90;100576.34;5029857;28;20046;-59
2023/03/20 02:16:22;;;;;;;27.10;20.10;;;;;;;11.84;65.17;100569.69;5029159;28;20538;-59
2023/03/20 02:18:55;;;;;;;27.55;20.30;;;;;;;11.87;65.31;100567.09;5029656;28;20076;-59
2023/03/20 02:22:01;;;;;;;27.40;20.30;;;;;;;11.90;65.12;100568.44;5024797;28;20053;-60
2023/03/20 02:25:15;;;;;;;30.35;20.80;;;;;;;11.93;64.46;100565.03;5010460;28;20046;-60
2023/03/20 02:27:54;;;;;;;28.98;19.92;;;;;;;11.84;64.68;100578.06;5024878;28;20053;-59
2023/03/20 02:30:42;;;;;;;30.50;18.52;;;;;;;11.78;64.61;100569.03;5029848;28;20053;-59
2023/03/20 02:33:55;;;;;;;25.27;16.17;;;;;;;11.65;64.62;100584.69;5027355;28;20500;-59
2023/03/20 02:36:50;;;;;;;28.42;17.75;;;;;;;11.64;64.02;100591.41;5027342;28;20057;-59
2023/03/20 02:39:47;;;;;;;24.98;15.63;;;;;;;11.63;64.07;100592.56;4986817;28;20058;-58
2023/03/20 02:42:24;;;;;;;22.23;14.82;;;;;;;11.60;64.00;100587.63;5022616;28;20058;-59
2023/03/20 02:45:03;;;;;;;24.50;15.38;;;;;;;11.61;64.27;100597.63;5029382;28;20487;-59
2023/03/20 02:47:37;;;;;;;28.83;16.15;;;;;;;11.64;63.83;100591.41;5027981;28;20050;-59
2023/03/20 02:50:15;;;;;;;19.30;11.88;;;;;;;11.68;63.89;100586.03;5027111;28;20050;-59
2023/03/20 02:52:47;;;;;;;18.52;12.73;;;;;;;11.68;63.50;100586.84;5027011;28;20053;-59
2023/03/20 02:55:21;;;;;;;18.77;11.60;;;;;;;11.64;62.92;100587.81;5028128;28;20053;-59
2023/03/20 02:57:58;;;;;;;20.92;12.98;;;;;;;11.55;63.09;100583.00;5024309;28;20107;-59
2023/03/20 03:00:32;;;;;;;18.45;11.68;;;;;;;11.48;63.15;100579.81;5028897;28;20049;-59
2023/03/20 03:03:07;;;;;;;20.15;12.45;;;;;;;11.38;63.33;100586.50;5027722;28;20057;-60
2023/03/20 03:05:39;;;;;;;18.10;12.00;;;;;;;11.28;63.75;100583.16;5026683;28;20053;-59
2023/03/20 03:08:12;;;;;;;17.98;12.18;;;;;;;11.21;64.43;100583.56;5027964;28;20053;-59
2023/03/20 03:10:45;;;;;;;18.38;10.85;;;;;;;11.29;64.31;100593.97;5028948;28;20064;-59
2023/03/20 03:13:18;;;;;;;16.15;11.25;;;;;;;11.35;64.08;100597.47;5025162;28;20053;-59
2023/03/20 03:15:50;;;;;;;19.00;11.90;;;;;;;11.33;63.47;100599.72;5024978;28;20058;-59
2023/03/20 03:18:21;;;;;;;16.38;11.30;;;;;;;11.19;63.36;100597.00;5028578;28;20080;-59
2023/03/20 03:20:52;;;;;;;13.93;9.70;;;;;;;11.25;63.40;100611.66;5027673;28;20431;-58
2023/03/20 03:23:28;;;;;;;15.68;11.00;;;;;;;11.28;63.45;100611.84;5029760;28;20416;-59
2023/03/20 03:26:00;;;;;;;14.07;10.93;;;;;;;11.30;63.46;100611.53;5027816;28;20057;-59
2023/03/20 03:28:36;;;;;;;14.13;10.75;;;;;;;11.28;62.84;100616.59;5029782;28;20057;-58
2023/03/20 03:31:07;;;;;;;16.17;10.20;;;;;;;11.34;62.53;100616.16;5026714;28;20069;-58
2023/03/20 03:33:36;;;;;;;13.40;9.63;;;;;;;11.34;62.38;100616.16;5027067;28;20058;-59
2023/03/20 03:36:12;;;;;;;13.60;9.88;;;;;;;11.25;62.18;100618.03;5026769;28;20062;-59
2023/03/20 03:38:44;;;;;;;14.57;10.65;;;;;;;11.33;62.26;100613.69;5027662;28;20514;-59
2023/03/20 03:41:22;;;;;;;14.18;10.27;;;;;;;11.24;61.47;100615.59;5028636;28;20061;-59
2023/03/20 03:43:58;;;;;;;14.38;10.02;;;;;;;11.23;61.65;100619.50;5028297;28;20069;-59
2023/03/20 03:46:34;;;;;;;14.57;10.63;;;;;;;11.25;61.73;100615.25;5012919;28;20049;-58
2023/03/20 03:49:03;;;;;;;14.05;10.52;;;;;;;11.19;62.61;100602.56;5012194;28;20050;-59
2023/03/20 03:51:34;;;;;;;12.48;9.40;;;;;;;11.21;62.21;100577.16;5012114;28;20054;-59
2023/03/20 03:54:06;;;;;;;14.20;10.32;;;;;;;11.00;61.83;100582.41;5011982;28;20058;-59
2023/03/20 03:56:39;;;;;;;14.85;10.77;;;;;;;11.03;61.95;100576.22;5012329;28;20054;-59
2023/03/20 03:59:13;;;;;;;13.45;11.02;;;;;;;10.96;61.93;100577.47;5011950;28;20050;-59
2023/03/20 04:01:43;;;;;;;15.30;10.27;;;;;;;10.92;61.29;100556.94;5019502;28;20420;-59
2023/03/20 04:04:14;;;;;;;14.95;10.48;;;;;;;10.89;61.79;100554.78;5031825;28;20060;-59
2023/03/20 04:06:42;;;;;;;15.25;10.05;;;;;;;10.82;62.73;100557.19;5031576;28;20053;-59
2023/03/20 04:09:09;;;;;;;15.57;10.35;;;;;;;10.75;62.02;100559.56;5031383;28;20079;-59
2023/03/20 04:11:38;;;;;;;13.90;10.55;;;;;;;10.72;62.55;100554.63;5031748;28;20065;-59
2023/03/20 04:14:06;;;;;;;16.17;10.25;;;;;;;10.66;62.76;100562.25;5031701;28;20404;-59
2023/03/20 04:16:33;;;;;;;13.88;10.27;;;;;;;10.64;62.44;100560.94;5031509;28;20064;-59
2023/03/20 04:19:00;;;;;;;13.10;9.57;;;;;;;10.64;62.31;100556.19;5027879;28;20060;-58
2023/03/20 04:21:27;;;;;;;14.63;10.70;;;;;;;10.53;62.77;100555.59;5017190;28;20393;-59
2023/03/20 04:23:55;;;;;;;14.45;9.85;;;;;;;10.54;62.90;100553.63;5011780;28;20057;-59
2023/03/20 04:26:23;;;;;;;14.30;10.38;;;;;;;10.47;63.22;100559.63;5012772;28;20046;-59
2023/03/20 04:28:51;;;;;;;12.32;9.50;;;;;;;10.49;62.81;100576.84;5012621;28;20061;-59
2023/03/20 04:31:19;;;;;;;12.52;9.55;;;;;;;10.58;63.32;100585.28;5012708;28;20065;-59
2023/03/20 04:33:46;;;;;;;12.85;9.65;;;;;;;10.62;63.33;100577.13;5011513;28;20492;-59
2023/03/20 04:36:14;;;;;;;14.77;10.20;;;;;;;10.61;62.65;100575.50;5025031;28;20408;-59
2023/03/20 04:38:41;;;;;;;15.82;10.82;;;;;;;10.65;62.71;100570.94;5031207;28;20411;-58
2023/03/20 04:41:09;;;;;;;11.65;9.27;;;;;;;10.68;63.14;100570.31;5031302;28;20060;-58
2023/03/20 04:43:36;;;;;;;15.55;10.32;;;;;;;10.66;62.17;100570.63;5031350;28;20053;-60
2023/03/20 04:46:05;;;;;;;13.88;9.85;;;;;;;10.61;62.16;100581.06;5030948;28;20050;-60
2023/03/20 04:48:32;;;;;;;13.20;9.70;;;;;;;10.67;62.49;100574.25;5030751;28;20053;-59
2023/03/20 04:51:00;;;;;;;15.32;10.18;;;;;;;10.64;62.75;100577.66;5031274;28;20412;-60
2023/03/20 04:53:27;;;;;;;15.70;10.40;;;;;;;10.52;62.82;100575.38;5030313;28;20062;-60
2023/03/20 04:55:54;;;;;;;14.43;10.63;;;;;;;10.67;61.83;100568.69;5030401;28;20053;-60
2023/03/20 04:58:22;;;;;;;16.88;10.73;;;;;;;10.62;61.96;100566.00;5030273;28;20057;-60
2023/03/20 05:00:49;;;;;;;15.43;11.52;;;;;;;10.56;61.87;100565.28;5030674;28;20060;-59
2023/03/20 05:03:18;;;;;;;18.85;11.32;;;;;;;10.54;61.89;100562.81;5031035;28;20053;-58
2023/03/20 05:05:45;;;;;;;16.30;11.52;;;;;;;10.41;62.58;100544.16;5031082;28;20046;-59
2023/03/20 05:08:13;;;;;;;16.42;11.32;;;;;;;10.31;62.31;100547.16;5031044;28;20060;-58
2023/03/20 05:10:40;;;;;;;15.70;11.02;;;;;;;10.25;62.74;100540.84;5030657;28;20049;-59
2023/03/20 05:13:07;;;;;;;17.88;12.10;;;;;;;10.04;64.03;100534.06;5030826;28;20061;-60
2023/03/20 05:15:34;;;;;;;16.55;11.88;;;;;;;10.01;63.08;100534.66;5030944;28;20372;-60
2023/03/20 05:18:02;;;;;;;18.35;12.27;;;;;;;9.98;64.26;100544.47;5025142;28;20058;-60
2023/03/20 05:20:31;;;;;;;18.63;12.30;;;;;;;10.06;63.85;100540.16;5017390;28;20049;-60
2023/03/20 05:22:58;;;;;;;17.92;12.93;;;;;;;9.91;63.78;100535.69;5030776;28;20053;-60
2023/03/20 05:25:25;;;;;;;17.27;12.15;;;;;;;9.94;63.44;100535.09;5030609;28;20065;-60
2023/03/20 05:27:52;;;;;;;17.95;11.60;;;;;;;9.96;62.79;100524.47;5030012;28;20056;-60
2023/03/20 05:30:20;;;;;;;17.13;12.70;;;;;;;9.97;63.04;100534.47;5030676;28;20061;-60
2023/03/20 05:32:49;;;;;;;17.83;12.30;;;;;;;9.93;64.21;100537.06;5025149;28;20053;-60
2023/03/20 05:35:17;;;;;;;17.27;12.60;;;;;;;9.96;64.10;100542.00;5020446;28;20411;-60
2023/03/20 05:37:45;;;;;;;17.00;11.43;;;;;;;10.00;63.54;100544.97;5018954;28;20053;-60
2023/03/20 05:40:15;;;;;;;16.95;10.88;;;;;;;10.02;64.12;100539.13;5018287;28;20054;-60
2023/03/20 05:42:42;;;;;;;16.20;10.73;;;;;;;10.01;63.80;100534.66;5016868;28;20150;-61
2023/03/20 05:45:10;;;;;;;16.25;11.93;;;;;;;9.98;63.65;100536.13;5018978;28;20372;-60
2023/03/20 05:47:37;;;;;;;18.73;12.77;;;;;;;10.00;62.95;100538.59;5021313;28;20045;-60
2023/03/20 05:50:05;;;;;;;18.27;11.77;;;;;;;10.02;62.88;100553.84;5018803;28;20077;-60
2023/03/20 05:52:33;;;;;;;16.77;10.55;;;;;;;10.03;63.46;100566.63;5018552;28;20057;-60
2023/03/20 05:55:02;;;;;;;15.98;11.25;;;;;;;10.03;62.56;100566.63;5019464;28;20056;-60
2023/03/20 05:57:29;;;;;;;18.08;12.13;;;;;;;10.10;62.30;100568.97;5019117;28;20423;-60
2023/03/20 05:59:56;;;;;;;15.57;11.07;;;;;;;10.12;62.31;100578.69;5018733;28;20061;-60
2023/03/20 06:02:24;;;;;;;17.38;11.45;;;;;;;10.20;62.19;100585.47;5021235;28;20053;-60
2023/03/20 06:04:51;;;;;;;15.13;11.07;;;;;;;10.08;62.62;100576.81;5017598;28;20053;-60
2023/03/20 06:07:18;;;;;;;14.93;10.98;;;;;;;10.14;62.89;100573.66;5017818;28;20050;-60
2023/03/20 06:09:46;;;;;;;16.25;10.98;;;;;;;10.05;63.54;100574.66;5018823;28;20058;-60
2023/03/20 06:12:15;;;;;;;16.55;11.00;;;;;;;10.21;62.57;100569.63;5017900;28;20054;-60
2023/03/20 06:14:42;;;;;;;16.80;11.05;;;;;;;10.16;63.37;100576.94;5017599;28;20072;-60
2023/03/20 06:17:09;;;;;;;16.73;11.32;;;;;;;10.22;63.06;100572.09;5020378;28;20452;-60
2023/03/20 06:19:37;;;;;;;18.13;11.23;;;;;;;10.21;62.70;100567.66;5018534;28;20408;-60
2023/03/20 06:22:04;;;;;;;18.67;12.23;;;;;;;10.36;62.21;100566.56;5018326;28;20045;-60
2023/03/20 06:24:32;;;;;;;16.35;11.55;;;;;;;10.33;61.92;100564.38;5017933;28;20045;-60
2023/03/20 06:26:59;;;;;;;16.40;11.88;;;;;;;10.44;62.06;100560.25;5018074;28;20503;-60
2023/03/20 06:29:28;;;;;;;17.20;12.23;;;;;;;10.50;62.33;100561.78;5021419;28;20057;-60
2023/03/20 06:31:55;;;;;;;15.43;11.57;;;;;;;10.62;62.04;100568.78;5028292;28;20049;-60
2023/03/20 06:34:23;;;;;;;16.70;12.10;;;;;;;10.73;62.11;100567.41;5029578;28;20049;-60
2023/03/20 06:36:50;;;;;;;15.55;11.23;;;;;;;10.81;61.85;100571.41;5029329;28;20061;-60
2023/03/20 06:39:18;;;;;;;16.77;12.43;;;;;;;10.90;61.34;100566.75;5029466;28;20056;-60
2023/03/20 06:41:45;;;;;;;15.50;11.82;;;;;;;10.98;60.55;100574.34;5029434;28;20411;-60
2023/03/20 06:44:12;;;;;;;17.73;12.25;;;;;;;11.04;59.88;100575.06;5028364;28;20057;-60
2023/03/20 06:46:41;;;;;;;17.40;12.35;;;;;;;11.10;59.86;100582.16;5028555;28;20045;-62
2023/03/20 06:49:08;;;;;;;17.75;12.88;;;;;;;11.15;60.41;100594.03;5029215;28;20545;-61
2023/03/20 06:51:36;;;;;;;16.95;13.00;;;;;;;11.17;59.79;100593.69;5021417;28;20049;-60
2023/03/20 06:54:03;;;;;;;18.02;13.13;;;;;;;11.12;59.97;100599.41;5028690;28;20058;-60
2023/03/20 06:56:31;;;;;;;22.30;15.57;;;;;;;11.11;59.78;100592.19;5025872;28;20045;-60
2023/03/20 06:58:58;;;;;;;19.55;13.70;;;;;;;11.07;60.12;100591.19;5026398;28;20064;-60
2023/03/20 07:01:26;;;;;;;16.73;13.07;;;;;;;11.22;59.57;100606.72;5024143;28;20436;-60
2023/03/20 07:03:54;;;;;;;18.92;12.35;;;;;;;11.25;59.12;100600.50;5025705;28;20058;-60
2023/03/20 07:06:22;;;;;;;18.17;12.65;;;;;;;11.34;59.11;100599.44;5026558;28;20050;-60
2023/03/20 07:08:50;;;;;;;16.40;11.50;;;;;;;11.37;58.77;100604.34;5025723;28;20057;-60
2023/03/20 07:11:17;;;;;;;14.65;11.38;;;;;;;11.43;58.89;100595.88;5020684;28;20428;-60
2023/03/20 07:13:44;;;;;;;16.00;11.77;;;;;;;11.42;58.65;100608.97;5026041;28;20058;-60
2023/03/20 07:16:12;;;;;;;16.58;11.60;;;;;;;11.48;58.20;100610.50;5028521;28;20510;-59
2023/03/20 07:18:39;;;;;;;14.10;10.95;;;;;;;11.46;57.57;100611.97;5026850;28;20046;-60
2023/03/20 07:21:08;;;;;;;13.48;9.55;;;;;;;11.49;57.27;100605.78;5030452;28;20412;-60
2023/03/20 07:23:36;;;;;;;14.95;11.43;;;;;;;11.48;57.08;100612.47;5029282;28;20411;-60
2023/03/20 07:26:05;;;;;;;15.10;10.73;;;;;;;11.57;57.12;100613.38;5026676;28;20045;-60
2023/03/20 07:28:32;;;;;;;14.75;9.88;;;;;;;11.64;56.60;100619.31;5029096;28;20500;-60
2023/03/20 07:30:59;;;;;;;11.98;8.63;;;;;;;11.53;56.32;100617.94;5027199;28;20061;-60
2023/03/20 07:33:27;;;;;;;11.02;8.38;;;;;;;11.64;56.36;100624.91;5026649;28;20054;-59
2023/03/20 07:35:55;;;;;;;11.95;8.27;;;;;;;11.90;55.57;100627.06;5028203;28;20058;-60
2023/03/20 07:38:24;;;;;;;11.35;8.80;;;;;;;11.99;55.15;100625.16;5027476;28;20061;-60
2023/03/20 07:40:53;;;;;;;11.60;8.75;;;;;;;12.17;54.95;100626.88;5029716;28;20064;-60
2023/03/20 07:43:21;;;;;;;11.90;8.20;;;;;;;12.36;54.94;100626.63;5024492;28;20053;-61
2023/03/20 07:45:49;;;;;;;10.10;8.00;;;;;;;12.54;54.22;100629.50;5028402;28;20064;-61
2023/03/20 07:48:16;;;;;;;10.25;8.15;;;;;;;12.54;53.74;100630.31;5029633;28;20053;-61
2023/03/20 07:50:43;;;;;;;11.20;7.90;;;;;;;12.62;52.91;100625.06;5029428;28;20068;-60
2023/03/20 07:53:11;;;;;;;13.07;8.68;;;;;;;12.81;52.61;100628.41;5022828;28;20045;-61
2023/03/20 07:55:39;;;;;;;10.18;7.68;;;;;;;12.97;51.93;100625.97;5030263;28;20049;-60
2023/03/20 07:58:07;;;;;;;12.53;7.93;;;;;;;13.26;52.00;100628.13;5025451;28;20488;-61
2023/03/20 08:00:35;;;;;;;11.75;8.25;;;;;;;13.55;51.65;100616.28;5026401;28;20053;-61
2023/03/20 08:03:04;;;;;;;12.45;8.45;;;;;;;13.89;49.65;100617.38;5025560;28;20053;-61
2023/03/20 08:05:31;;;;;;;9.02;7.47;;;;;;;13.96;48.84;100622.47;5025608;28;20054;-59
2023/03/20 08:07:59;;;;;;;11.70;7.97;;;;;;;14.18;48.57;100630.63;5027717;28;20060;-60
2023/03/20 08:10:26;;;;;;;8.93;7.07;;;;;;;14.24;48.61;100633.25;5029589;28;20061;-60
2023/03/20 08:12:56;;;;;;;10.27;7.22;;;;;;;14.52;48.13;100628.84;5027720;28;20058;-59
2023/03/20 08:15:23;;;;;;;9.48;7.30;;;;;;;14.93;47.42;100618.06;5027395;28;21558;-59
2023/03/20 08:17:50;;;;;;;11.65;7.38;;;;;;;17.16;42.94;100613.47;5025755;28;20053;-60
2023/03/20 08:20:18;;;;;;;10.18;6.45;;;;;;;18.20;40.07;100616.38;5025607;28;20056;-59
2023/03/20 08:22:46;;;;;;;9.38;6.00;;;;;;;18.39;38.61;100621.31;5030332;28;20050;-60
2023/03/20 08:25:13;;;;;;;10.38;5.55;;;;;;;17.87;39.05;100624.34;5031789;28;20064;-59
2023/03/20 08:27:40;;;;;;;8.93;5.00;;;;;;;17.61;39.68;100622.81;5033421;27;20506;-59
2023/03/20 08:30:11;;;;;;;7.50;4.97;;;;;;;16.62;40.44;100633.41;5027171;28;20069;-59
2023/03/20 08:32:39;;;;;;;8.02;4.93;;;;;;;16.26;41.51;100620.97;5029070;28;20054;-59
2023/03/20 08:35:08;;;;;;;7.55;5.32;;;;;;;15.80;42.51;100637.03;5025957;27;20064;-60
2023/03/20 08:37:36;;;;;;;7.60;5.38;;;;;;;15.33;43.76;100629.69;5026935;28;20069;-59
2023/03/20 08:40:05;;;;;;;7.45;5.00;;;;;;;15.11;43.89;100639.25;5027664;28;20048;-59
2023/03/20 08:42:32;;;;;;;7.03;4.80;;;;;;;15.23;43.66;100632.88;5023737;28;20049;-59
2023/03/20 08:45:00;;;;;;;7.10;4.53;;;;;;;15.09;43.87;100641.56;5025809;28;20049;-59
2023/03/20 08:47:28;;;;;;;7.97;4.57;;;;;;;14.83;44.59;100633.34;5025960;28;20045;-59
2023/03/20 08:49:56;;;;;;;10.55;5.53;;;;;;;14.42;45.24;100643.22;5026946;28;20057;-59
2023/03/20 08:52:23;;;;;;;7.25;4.60;;;;;;;14.37;45.23;100635.03;5025845;28;20057;-60
2023/03/20 08:54:51;;;;;;;8.82;4.82;;;;;;;14.40;44.23;100642.75;5027495;28;20065;-59
2023/03/20 08:57:18;;;;;;;8.38;4.93;;;;;;;14.14;46.02;100654.06;5027399;28;20049;-59
2023/03/20 08:59:45;;;;;;;8.15;4.60;;;;;;;13.99;46.04;100647.84;5027333;28;20049;-60
2023/03/20 09:02:12;;;;;;;7.28;4.95;;;;;;;13.99;45.49;100655.41;5023854;28;20405;-59
2023/03/20 09:04:41;;;;;;;7.13;4.82;;;;;;;13.97;46.27;100652.94;5027492;28;20054;-59
2023/03/20 09:07:08;;;;;;;8.65;5.00;;;;;;;14.08;45.87;100652.59;5022877;28;20058;-59
2023/03/20 09:09:36;;;;;;;7.85;5.00;;;;;;;14.44;46.20;100643.72;5024208;28;20052;-59
2023/03/20 09:12:03;;;;;;;10.02;6.53;;;;;;;14.42;44.35;100640.44;5023274;28;20404;-60
2023/03/20 09:14:30;;;;;;;10.63;7.22;;;;;;;13.96;45.50;100651.31;5022360;28;20050;-59
2023/03/20 09:16:58;;;;;;;10.10;6.68;;;;;;;14.18;45.69;100658.66;5025079;28;20046;-59
2023/03/20 09:19:25;;;;;;;10.20;7.20;;;;;;;14.12;44.74;100654.38;5022790;28;20495;-59
2023/03/20 09:21:54;;;;;;;8.18;6.40;;;;;;;14.31;45.48;100639.97;5025681;28;20056;-59
2023/03/20 09:24:21;;;;;;;10.15;7.07;;;;;;;14.24;44.32;100636.88;5021541;28;20060;-58
2023/03/20 09:26:49;;;;;;;10.90;6.68;;;;;;;14.25;45.29;100640.50;5024610;28;20057;-60
2023/03/20 09:29:16;;;;;;;10.00;7.40;;;;;;;14.12;43.95;100643.19;5022687;28;20411;-59
2023/03/20 09:31:43;;;;;;;9.85;6.60;;;;;;;13.93;44.65;100645.53;5021634;28;20056;-60
2023/03/20 09:34:10;;;;;;;8.45;6.25;;;;;;;14.01;44.32;100647.50;5025867;28;20053;-59
2023/03/20 09:36:38;;;;;;;9.23;6.78;;;;;;;13.70;45.87;100648.53;5031139;27;20468;-59
2023/03/20 09:39:07;;;;;;;9.38;6.68;;;;;;;13.87;45.88;100636.50;5030299;28;20049;-59
2023/03/20 09:41:36;;;;;;;8.60;6.47;;;;;;;13.79;45.65;100652.13;5027934;28;20049;-59
2023/03/20 09:44:12;;;;;;;10.38;6.75;;;;;;;13.94;46.03;100653.63;5028463;28;20411;-59
2023/03/20 09:47:07;;;;;;;8.45;6.70;;;;;;;13.87;44.83;100644.06;5030184;28;20064;-59
2023/03/20 09:49:44;;;;;;;10.57;7.22;;;;;;;13.82;45.64;100650.69;5038036;27;20061;-59
2023/03/20 09:52:20;;;;;;;8.85;6.45;;;;;;;13.90;44.99;100643.41;5026601;28;20488;-59
2023/03/20 09:54:53;;;;;;;10.35;6.72;;;;;;;13.95;45.56;100649.66;5023638;28;20061;-59
2023/03/20 09:57:24;;;;;;;10.95;7.35;;;;;;;13.83;44.67;100640.28;5027863;28;20487;-58
2023/03/20 09:59:55;;;;;;;11.77;6.90;;;;;;;13.92;44.64;100649.47;5026518;28;20048;-58
2023/03/20 10:02:34;;;;;;;9.45;6.88;;;;;;;14.10;45.45;100651.09;5024966;28;20061;-58
2023/03/20 10:05:04;;;;;;;10.23;6.45;;;;;;;14.09;44.59;100652.25;5027713;28;20049;-58
2023/03/20 10:07:32;;;;;;;9.45;6.78;;;;;;;14.28;45.36;100645.44;5027200;28;20420;-59
2023/03/20 10:10:00;;;;;;;8.52;6.15;;;;;;;14.28;44.21;100645.44;5025783;28;20061;-59
2023/03/20 10:12:45;;;;;;;8.80;6.75;;;;;;;13.92;44.34;100650.34;5025185;28;20504;-59
2023/03/20 10:15:20;;;;;;;8.35;6.47;;;;;;;13.90;43.79;100641.44;5022722;27;20057;-60
2023/03/20 10:17:57;;;;;;;10.48;6.00;;;;;;;14.03;44.02;100642.41;5025555;28;20054;-58
2023/03/20 10:20:33;;;;;;;11.65;6.78;;;;;;;13.94;44.87;100642.41;5021515;28;20145;-59
2023/03/20 10:23:07;;;;;;;10.77;6.43;;;;;;;14.10;44.68;100627.88;5021087;28;20515;-59
2023/03/20 10:25:42;;;;;;;8.27;6.13;;;;;;;14.50;43.42;100636.75;5028056;28;20049;-60
2023/03/20 10:28:12;;;;;;;9.10;5.82;;;;;;;14.81;43.88;100630.84;5024781;28;20045;-59
2023/03/20 10:30:51;;;;;;;8.68;6.03;;;;;;;14.92;43.97;100630.47;5025481;28;20053;-59
2023/03/20 10:33:34;;;;;;;9.20;5.90;;;;;;;14.79;43.64;100629.56;5027597;28;20490;-59
2023/03/20 10:36:14;;;;;;;9.40;5.10;;;;;;;14.73;42.46;100628.13;5026586;28;20081;-59
2023/03/20 10:38:49;;;;;;;7.63;5.40;;;;;;;14.68;42.95;100622.69;5027223;28;20041;-59
2023/03/20 10:41:21;;;;;;;7.10;5.43;;;;;;;14.69;42.35;100627.97;5026769;28;20053;-59
2023/03/20 10:43:51;;;;;;;9.57;4.53;;;;;;;14.74;42.51;100629.75;5026619;28;20056;-59
2023/03/20 10:46:23;;;;;;;6.13;4.60;;;;;;;14.51;42.82;100629.16;5025788;28;20054;-59
2023/03/20 10:48:57;;;;;;;6.85;4.43;;;;;;;14.67;42.52;100618.25;5027254;28;20053;-59
2023/03/20 10:51:36;;;;;;;7.82;4.45;;;;;;;14.98;42.20;100618.69;5023041;28;20049;-59
2023/03/20 10:54:06;;;;;;;7.93;4.38;;;;;;;15.16;41.38;100619.41;5010321;28;20057;-59
2023/03/20 10:56:40;;;;;;;7.70;4.55;;;;;;;15.52;40.35;100611.53;5017809;27;20060;-59
2023/03/20 10:59:22;;;;;;;6.75;3.97;;;;;;;15.65;39.97;100613.19;5029478;28;20475;-59
2023/03/20 11:01:50;;;;;;;8.10;4.35;;;;;;;15.68;40.02;100612.50;5026618;28;20526;-59
2023/03/20 11:04:17;;;;;;;6.40;3.80;;;;;;;16.01;40.04;100614.50;5027897;28;20407;-58
2023/03/20 11:06:53;;;;;;;6.57;4.43;;;;;;;16.03;39.93;100600.94;5030603;28;20434;-59
2023/03/20 11:09:23;;;;;;;7.57;4.05;;;;;;;16.45;38.74;100606.34;5028803;28;20404;-59
2023/03/20 11:11:57;;;;;;;7.25;4.18;;;;;;;16.55;39.10;100605.91;5029170;28;20068;-59
2023/03/20 11:14:27;;;;;;;5.68;3.78;;;;;;;16.60;38.86;100597.22;5027111;27;20045;-59
2023/03/20 11:16:55;;;;;;;;;;;;;;;16.76;38.81;100604.94;5023901;27;20522;-59
2023/03/20 11:19:23;;;;;;;6.03;3.78;;;;;;;16.87;37.41;100600.50;5025529;27;19925;-59
2023/03/20 11:21:54;;;;;;;6.35;3.65;;;;;;;16.41;37.77;100599.78;5028939;28;20068;-59
2023/03/20 11:24:32;;;;;;;6.22;4.07;;;;;;;16.33;38.52;100592.28;5032737;28;20060;-59
2023/03/20 11:27:08;;;;;;;5.95;4.13;;;;;;;16.25;38.04;100608.09;5033436;28;20423;-58
2023/03/20 11:29:36;;;;;;;6.88;3.22;;;;;;;15.90;38.75;100591.66;5032085;27;20070;-59